createdAt,value
2023-04-26T00:00:35.543Z,99.90
2023-04-26T00:03:03.933Z,99.90
2023-04-26T00:05:33.063Z,99.90
2023-04-26T00:08:00.376Z,99.90
2023-04-26T00:10:27.341Z,99.90
2023-04-26T00:12:54.222Z,99.90
2023-04-26T00:15:21.026Z,99.90
2023-04-26T00:17:47.941Z,99.90
2023-04-26T00:20:14.746Z,99.90
2023-04-26T00:22:41.486Z,99.90
2023-04-26T00:25:08.809Z,99.90
2023-04-26T00:27:35.782Z,99.90
2023-04-26T00:30:02.477Z,99.90
2023-04-26T00:32:31.190Z,99.90
2023-04-26T00:34:57.920Z,99.90
2023-04-26T00:37:24.978Z,99.90
2023-04-26T00:39:51.842Z,99.90
2023-04-26T00:42:19.467Z,99.90
2023-04-26T00:44:46.378Z,99.90
2023-04-26T00:47:15.725Z,99.90
2023-04-26T00:49:42.566Z,99.90
2023-04-26T00:52:09.735Z,99.90
2023-04-26T00:54:36.721Z,99.90
2023-04-26T00:57:03.583Z,99.90
2023-04-26T00:59:30.641Z,99.90
2023-04-26T01:01:57.704Z,99.90
2023-04-26T01:04:27.345Z,99.90
2023-04-26T01:06:57.864Z,99.90
2023-04-26T01:09:24.647Z,99.90
2023-04-26T01:11:52.846Z,99.90
2023-04-26T01:14:19.962Z,99.90
2023-04-26T01:16:46.995Z,99.90
2023-04-26T01:19:13.960Z,99.90
2023-04-26T01:21:41.609Z,99.90
2023-04-26T01:24:13.048Z,99.90
2023-04-26T01:26:45.678Z,99.90
2023-04-26T01:29:24.678Z,99.90
2023-04-26T01:31:51.442Z,99.90
2023-04-26T01:34:18.328Z,99.90
2023-04-26T01:36:45.078Z,99.90
2023-04-26T01:39:11.974Z,99.90
2023-04-26T01:41:38.783Z,99.90
2023-04-26T01:44:05.724Z,99.90
2023-04-26T01:46:35.810Z,99.90
2023-04-26T01:49:02.944Z,99.90
2023-04-26T01:51:29.799Z,99.90
2023-04-26T01:53:56.542Z,99.90
2023-04-26T01:56:24.887Z,99.90
2023-04-26T01:58:51.836Z,99.90
2023-04-26T02:01:31.559Z,99.90
2023-04-26T02:03:58.437Z,99.90
2023-04-26T02:06:25.370Z,99.90
2023-04-26T02:08:53.246Z,99.90
2023-04-26T02:11:20.272Z,99.90
2023-04-26T02:13:47.184Z,99.90
2023-04-26T02:16:16.222Z,99.90
2023-04-26T02:18:44.398Z,99.90
2023-04-26T02:21:12.324Z,99.90
2023-04-26T02:23:39.071Z,99.90
2023-04-26T02:26:06.114Z,99.90
2023-04-26T02:28:32.979Z,99.90
2023-04-26T02:30:59.771Z,99.90
2023-04-26T02:33:26.638Z,99.90
2023-04-26T02:35:53.376Z,99.90
2023-04-26T02:38:20.295Z,99.90
2023-04-26T02:40:47.367Z,99.90
2023-04-26T02:43:14.135Z,99.90
2023-04-26T02:45:42.653Z,99.90
2023-04-26T02:48:09.524Z,99.90
2023-04-26T02:50:36.401Z,99.90
2023-04-26T02:53:03.739Z,99.90
2023-04-26T02:55:33.648Z,99.90
2023-04-26T02:58:00.396Z,99.90
2023-04-26T03:00:27.920Z,99.90
2023-04-26T03:02:54.889Z,99.90
2023-04-26T03:05:22.716Z,99.90
2023-04-26T03:07:49.467Z,99.90
2023-04-26T03:10:16.355Z,99.90
2023-04-26T03:12:43.300Z,99.90
2023-04-26T03:15:10.691Z,99.90
2023-04-26T03:17:38.199Z,99.90
2023-04-26T03:20:08.091Z,99.90
2023-04-26T03:22:34.897Z,99.90
2023-04-26T03:25:01.702Z,99.90
2023-04-26T03:27:28.438Z,99.90
2023-04-26T03:29:55.855Z,99.90
2023-04-26T03:32:22.590Z,99.90
2023-04-26T03:34:49.913Z,99.90
2023-04-26T03:37:16.649Z,99.90
2023-04-26T03:39:43.461Z,99.90
2023-04-26T03:42:10.323Z,99.90
2023-04-26T03:44:37.158Z,99.90
2023-04-26T03:47:05.262Z,99.90
2023-04-26T03:49:32.237Z,99.90
2023-04-26T03:51:59.156Z,99.90
2023-04-26T03:54:25.930Z,99.90
2023-04-26T03:56:52.675Z,99.90
2023-04-26T03:59:20.320Z,99.90
2023-04-26T04:01:47.081Z,99.90
2023-04-26T04:04:14.148Z,99.90
2023-04-26T04:06:42.276Z,99.90
2023-04-26T04:09:09.178Z,99.90
2023-04-26T04:11:36.019Z,99.90
2023-04-26T04:14:03.020Z,99.90
2023-04-26T04:16:29.976Z,99.90
2023-04-26T04:18:57.128Z,99.90
2023-04-26T04:21:23.921Z,99.90
2023-04-26T04:23:50.757Z,99.90
2023-04-26T04:26:17.570Z,99.90
2023-04-26T04:28:45.625Z,99.90
2023-04-26T04:31:13.170Z,99.90
2023-04-26T04:33:40.468Z,99.90
2023-04-26T04:36:08.372Z,99.90
2023-04-26T04:38:35.944Z,99.90
2023-04-26T04:41:02.805Z,99.90
2023-04-26T04:43:29.512Z,99.90
2023-04-26T04:45:56.191Z,99.90
2023-04-26T04:48:23.066Z,99.90
2023-04-26T04:50:50.740Z,99.90
2023-04-26T04:53:17.673Z,99.90
2023-04-26T04:55:44.451Z,99.90
2023-04-26T04:58:11.265Z,99.90
2023-04-26T05:00:38.983Z,99.90
2023-04-26T05:03:05.863Z,99.90
2023-04-26T05:05:32.716Z,99.90
2023-04-26T05:07:59.537Z,99.90
2023-04-26T05:10:26.319Z,99.90
2023-04-26T05:12:53.016Z,99.90
2023-04-26T05:15:19.859Z,99.90
2023-04-26T05:17:46.561Z,99.90
2023-04-26T05:20:14.812Z,99.90
2023-04-26T05:22:41.539Z,99.90
2023-04-26T05:25:09.160Z,99.90
2023-04-26T05:27:37.485Z,99.90
2023-04-26T05:30:06.096Z,99.90
2023-04-26T05:32:32.858Z,99.90
2023-04-26T05:34:59.589Z,99.90
2023-04-26T05:37:26.335Z,99.90
2023-04-26T05:39:53.019Z,99.90
2023-04-26T05:42:19.868Z,99.90
2023-04-26T05:44:46.721Z,99.90
2023-04-26T05:47:14.018Z,99.90
2023-04-26T05:49:40.849Z,99.90
2023-04-26T05:52:07.736Z,99.90
2023-04-26T05:54:34.665Z,99.90
2023-04-26T05:57:02.103Z,99.90
2023-04-26T05:59:32.969Z,99.90
2023-04-26T06:01:59.976Z,99.90
2023-04-26T06:04:27.441Z,99.90
2023-04-26T06:06:54.648Z,99.90
2023-04-26T06:09:21.511Z,99.90
2023-04-26T06:11:48.388Z,99.90
2023-04-26T06:14:29.612Z,99.90
2023-04-26T06:16:58.215Z,99.90
2023-04-26T06:19:25.494Z,99.90
2023-04-26T06:21:54.955Z,99.90
2023-04-26T06:24:25.402Z,99.90
2023-04-26T06:26:52.570Z,99.90
2023-04-26T06:29:20.760Z,99.90
2023-04-26T06:31:47.525Z,99.90
2023-04-26T06:34:14.540Z,99.90
2023-04-26T06:36:41.803Z,99.90
2023-04-26T06:39:08.557Z,99.90
2023-04-26T06:41:35.443Z,99.90
2023-04-26T06:44:02.477Z,99.90
2023-04-26T06:46:35.559Z,99.90
2023-04-26T06:49:05.224Z,99.90
2023-04-26T06:51:32.448Z,99.90
2023-04-26T06:54:00.909Z,99.90
2023-04-26T06:56:27.990Z,99.90
2023-04-26T06:59:08.727Z,99.90
2023-04-26T07:01:36.349Z,99.90
2023-04-26T07:04:06.088Z,99.90
2023-04-26T07:06:33.251Z,99.90
2023-04-26T07:09:01.662Z,99.90
2023-04-26T07:11:28.866Z,99.90
2023-04-26T07:13:55.882Z,99.90
2023-04-26T07:16:23.247Z,99.90
2023-04-26T07:18:50.562Z,99.90
2023-04-26T07:21:17.504Z,99.90
2023-04-26T07:23:44.489Z,99.90
2023-04-26T07:26:12.269Z,99.90
2023-04-26T07:28:39.390Z,99.90
2023-04-26T07:31:08.789Z,99.90
2023-04-26T07:33:36.912Z,99.90
2023-04-26T07:36:08.652Z,99.90
2023-04-26T07:38:46.921Z,99.90
2023-04-26T07:41:25.222Z,99.90
2023-04-26T07:44:02.636Z,99.90
2023-04-26T07:46:35.570Z,99.90
2023-04-26T07:49:08.109Z,99.90
2023-04-26T07:51:37.435Z,99.90
2023-04-26T07:54:07.427Z,99.90
2023-04-26T07:56:34.551Z,99.90
2023-04-26T07:59:11.947Z,99.90
2023-04-26T08:01:42.565Z,99.90
2023-04-26T08:04:12.908Z,99.90
2023-04-26T08:06:44.980Z,99.90
2023-04-26T08:09:16.431Z,99.90
2023-04-26T08:11:47.895Z,99.90
2023-04-26T08:14:14.684Z,99.90
2023-04-26T08:16:41.661Z,99.90
2023-04-26T08:19:28.842Z,99.90
2023-04-26T08:21:55.842Z,99.90
2023-04-26T08:24:22.764Z,99.90
2023-04-26T08:26:49.798Z,99.90
2023-04-26T08:29:22.915Z,99.90
2023-04-26T08:31:49.874Z,99.90
2023-04-26T08:34:16.800Z,99.90
2023-04-26T08:36:44.148Z,99.90
2023-04-26T08:39:12.469Z,99.90
2023-04-26T08:41:51.054Z,99.90
2023-04-26T08:44:23.783Z,99.90
2023-04-26T08:47:20.297Z,99.90
2023-04-26T08:49:53.160Z,99.90
2023-04-26T08:52:23.656Z,99.90
2023-04-26T08:54:52.109Z,99.90
2023-04-26T08:57:20.255Z,99.90
2023-04-26T08:59:47.817Z,99.90
2023-04-26T09:02:18.758Z,99.90
2023-04-26T09:04:49.629Z,99.90
2023-04-26T09:07:27.236Z,99.90
2023-04-26T09:09:57.784Z,99.90
2023-04-26T09:12:25.451Z,99.90
2023-04-26T09:14:53.189Z,99.90
2023-04-26T09:17:34.337Z,99.90
2023-04-26T09:20:01.798Z,99.90
2023-04-26T09:22:33.899Z,99.90
2023-04-26T09:25:02.054Z,99.90
2023-04-26T09:27:33.926Z,99.90
2023-04-26T09:30:07.765Z,99.90
2023-04-26T09:32:49.645Z,99.90
2023-04-26T09:35:32.764Z,99.90
2023-04-26T09:38:07.793Z,99.90
2023-04-26T09:40:41.384Z,99.90
2023-04-26T09:43:13.136Z,99.90
2023-04-26T09:45:51.892Z,99.90
2023-04-26T09:48:30.734Z,99.90
2023-04-26T09:51:03.881Z,99.90
2023-04-26T09:53:47.316Z,99.90
2023-04-26T09:56:19.925Z,99.90
2023-04-26T09:58:46.612Z,99.90
2023-04-26T10:01:18.218Z,99.90
2023-04-26T10:03:46.592Z,99.90
2023-04-26T10:06:13.846Z,99.90
2023-04-26T10:08:40.858Z,99.90
2023-04-26T10:11:08.468Z,99.90
2023-04-26T10:13:35.723Z,99.90
2023-04-26T10:16:04.637Z,99.90
2023-04-26T10:18:32.593Z,99.90
2023-04-26T10:21:20.020Z,99.90
2023-04-26T10:23:48.858Z,99.90
2023-04-26T10:26:47.245Z,99.90
2023-04-26T10:29:14.090Z,99.90
2023-04-26T10:32:02.901Z,99.90
2023-04-26T10:34:34.000Z,99.90
2023-04-26T10:37:18.198Z,99.90
2023-04-26T10:39:46.830Z,99.90
2023-04-26T10:42:28.142Z,99.90
2023-04-26T10:45:26.345Z,99.90
2023-04-26T10:48:20.434Z,99.90
2023-04-26T10:51:01.233Z,99.90
2023-04-26T10:53:29.583Z,99.90
2023-04-26T10:55:56.718Z,99.90
2023-04-26T10:58:30.785Z,99.90
2023-04-26T11:01:07.330Z,99.90
2023-04-26T11:03:34.581Z,99.90
2023-04-26T11:06:07.473Z,99.90
2023-04-26T11:08:36.460Z,99.90
2023-04-26T11:11:10.254Z,99.90
2023-04-26T11:13:44.212Z,99.90
2023-04-26T11:16:16.516Z,99.90
2023-04-26T11:18:45.161Z,99.90
2023-04-26T11:21:15.398Z,99.90
2023-04-26T11:23:42.072Z,99.90
2023-04-26T11:26:17.695Z,99.20
2023-04-26T11:32:00.034Z,99.90
2023-04-26T11:34:44.004Z,99.90
2023-04-26T11:37:11.658Z,99.40
2023-04-26T11:39:51.512Z,99.70
2023-04-26T11:42:26.272Z,99.90
2023-04-26T11:44:54.230Z,99.90
2023-04-26T11:47:38.396Z,99.90
2023-04-26T11:50:06.533Z,99.50
2023-04-26T11:53:03.073Z,99.90
2023-04-26T11:55:37.485Z,99.90
2023-04-26T11:58:14.273Z,99.90
2023-04-26T12:00:58.095Z,99.40
2023-04-26T12:03:35.379Z,99.90
2023-04-26T12:06:02.513Z,99.90
2023-04-26T12:08:29.385Z,99.30
2023-04-26T12:11:01.156Z,99.20
2023-04-26T12:13:29.849Z,99.90
2023-04-26T12:15:56.647Z,99.90
2023-04-26T12:18:30.649Z,99.60
2023-04-26T12:21:01.385Z,99.50
2023-04-26T12:23:39.515Z,99.40
2023-04-26T12:26:07.621Z,99.90
2023-04-26T12:28:34.502Z,99.90
2023-04-26T12:31:03.673Z,98.60
2023-04-26T12:33:31.191Z,99.90
2023-04-26T12:36:00.238Z,99.80
2023-04-26T12:38:27.012Z,99.60
2023-04-26T12:40:53.759Z,99.90
2023-04-26T12:43:24.172Z,99.90
2023-04-26T12:45:51.349Z,98.40
2023-04-26T12:48:18.535Z,98.90
2023-04-26T12:50:49.207Z,99.90
2023-04-26T12:53:17.092Z,98.90
2023-04-26T12:55:44.467Z,98.40
2023-04-26T12:58:11.642Z,98.10
2023-04-26T13:00:38.649Z,96.20
2023-04-26T13:03:05.713Z,98.00
2023-04-26T13:05:32.557Z,98.20
2023-04-26T13:08:05.554Z,98.70
2023-04-26T13:10:33.020Z,97.50
2023-04-26T13:12:59.892Z,97.40
2023-04-26T13:15:27.690Z,96.20
2023-04-26T13:17:54.552Z,98.30
2023-04-26T13:20:22.345Z,96.10
2023-04-26T13:22:51.475Z,97.00
2023-04-26T13:25:19.237Z,97.10
2023-04-26T13:27:46.513Z,98.00
2023-04-26T13:30:14.151Z,97.80
2023-04-26T13:32:41.277Z,95.80
2023-04-26T13:35:08.777Z,95.90
2023-04-26T13:37:35.872Z,96.70
2023-04-26T13:40:06.345Z,96.70
2023-04-26T13:42:33.205Z,97.20
2023-04-26T13:45:01.320Z,95.30
2023-04-26T13:47:28.236Z,95.20
2023-04-26T13:49:55.022Z,97.50
2023-04-26T13:52:21.762Z,96.80
2023-04-26T13:54:48.656Z,94.80
2023-04-26T13:57:16.041Z,96.50
2023-04-26T13:59:42.886Z,94.40
2023-04-26T14:02:10.731Z,97.50
2023-04-26T14:04:38.125Z,96.70
2023-04-26T14:07:05.690Z,94.90
2023-04-26T14:09:32.767Z,96.20
2023-04-26T14:12:08.091Z,96.10
2023-04-26T14:14:35.965Z,96.10
2023-04-26T14:17:02.879Z,93.30
2023-04-26T14:19:29.663Z,94.00
2023-04-26T14:21:56.399Z,92.80
2023-04-26T14:24:23.238Z,94.50
2023-04-26T14:26:50.086Z,93.20
2023-04-26T14:29:17.046Z,92.60
2023-04-26T14:31:44.171Z,92.60
2023-04-26T14:34:13.823Z,95.10
2023-04-26T14:36:40.696Z,92.70
2023-04-26T14:39:07.899Z,93.40
2023-04-26T14:41:34.885Z,92.30
2023-04-26T14:44:01.817Z,93.60
2023-04-26T14:46:28.789Z,94.40
2023-04-26T14:48:55.754Z,95.10
2023-04-26T14:51:22.491Z,93.40
2023-04-26T14:53:49.426Z,93.30
2023-04-26T14:56:18.720Z,93.50
2023-04-26T14:58:48.155Z,92.10
2023-04-26T15:01:15.075Z,92.70
2023-04-26T15:03:42.021Z,94.80
2023-04-26T15:06:12.039Z,95.60
2023-04-26T15:08:38.853Z,94.50
2023-04-26T15:11:05.696Z,95.60
2023-04-26T15:13:32.449Z,95.60
2023-04-26T15:16:07.876Z,95.50
2023-04-26T15:18:34.891Z,95.50
2023-04-26T15:21:01.865Z,92.70
2023-04-26T15:23:28.722Z,93.70
2023-04-26T15:25:55.565Z,93.80
2023-04-26T15:28:34.393Z,92.80
2023-04-26T15:31:02.856Z,95.00
2023-04-26T15:33:30.572Z,95.60
2023-04-26T15:35:57.492Z,95.20
2023-04-26T15:38:24.540Z,94.60
2023-04-26T15:40:51.385Z,92.20
2023-04-26T15:43:18.334Z,94.50
2023-04-26T15:45:45.601Z,94.70
2023-04-26T15:48:12.668Z,94.50
2023-04-26T15:50:39.431Z,92.60
2023-04-26T15:53:06.230Z,93.60
2023-04-26T15:55:33.267Z,93.80
2023-04-26T15:58:20.447Z,92.20
2023-04-26T16:00:47.180Z,92.40
2023-04-26T16:03:14.075Z,94.40
2023-04-26T16:05:40.993Z,95.00
2023-04-26T16:08:07.886Z,92.30
2023-04-26T16:10:36.331Z,93.20
2023-04-26T16:13:04.997Z,94.50
2023-04-26T16:15:31.879Z,94.40
2023-04-26T16:17:58.879Z,93.80
2023-04-26T16:20:26.136Z,93.50
2023-04-26T16:22:53.077Z,91.60
2023-04-26T16:25:20.057Z,93.00
2023-04-26T16:27:47.123Z,93.50
2023-04-26T16:30:32.362Z,92.50
2023-04-26T16:33:22.064Z,91.40
2023-04-26T16:36:01.356Z,91.50
2023-04-26T16:38:28.236Z,94.50
2023-04-26T16:41:12.659Z,91.20
2023-04-26T16:43:41.376Z,91.80
2023-04-26T16:46:13.764Z,91.40
2023-04-26T16:48:44.142Z,91.40
2023-04-26T16:51:11.396Z,92.30
2023-04-26T16:53:41.467Z,94.20
2023-04-26T16:56:14.122Z,92.60
2023-04-26T16:58:58.062Z,93.30
2023-04-26T17:01:27.981Z,92.80
2023-04-26T17:03:58.477Z,91.50
2023-04-26T17:06:25.514Z,92.90
2023-04-26T17:08:52.521Z,94.20
2023-04-26T17:11:28.445Z,93.70
2023-04-26T17:14:05.888Z,93.60
2023-04-26T17:16:54.698Z,93.40
2023-04-26T17:19:24.657Z,93.70
2023-04-26T17:21:51.568Z,92.70
2023-04-26T17:24:18.274Z,92.90
2023-04-26T17:26:45.423Z,93.70
2023-04-26T17:29:12.207Z,92.80
2023-04-26T17:32:37.444Z,93.20
2023-04-26T17:35:04.553Z,92.40
2023-04-26T17:37:31.462Z,93.10
2023-04-26T17:40:24.532Z,93.30
2023-04-26T17:42:51.533Z,92.80
2023-04-26T17:45:33.561Z,93.00
2023-04-26T17:54:34.662Z,93.30
2023-04-26T18:00:17.868Z,93.70
2023-04-26T18:03:07.145Z,94.70
2023-04-26T18:11:27.390Z,94.90
2023-04-26T18:14:28.881Z,94.60
2023-04-26T18:16:59.192Z,95.80
2023-04-26T18:19:26.051Z,96.30
2023-04-26T18:25:18.389Z,95.60
2023-04-26T18:30:55.620Z,95.30
2023-04-26T18:33:57.873Z,95.10
2023-04-26T18:36:40.588Z,95.10
2023-04-26T18:44:53.511Z,95.40
2023-04-26T18:47:29.217Z,95.70
2023-04-26T18:49:56.104Z,95.90
2023-04-26T18:52:27.852Z,96.30
2023-04-26T18:57:41.914Z,97.60
2023-04-26T19:00:09.320Z,97.80
2023-04-26T19:08:38.994Z,97.50
2023-04-26T19:11:13.947Z,98.10
2023-04-26T19:13:41.572Z,98.80
2023-04-26T19:16:17.573Z,99.40
2023-04-26T19:19:19.917Z,99.90
2023-04-26T19:25:13.311Z,99.90
2023-04-26T19:28:32.549Z,99.90
2023-04-26T19:31:02.373Z,99.90
2023-04-26T19:33:32.687Z,99.90
2023-04-26T19:36:08.407Z,99.60
2023-04-26T19:44:37.132Z,99.90
2023-04-26T19:50:00.222Z,99.90
2023-04-26T19:52:35.778Z,99.90
2023-04-26T19:55:05.676Z,99.90
2023-04-26T20:08:04.760Z,99.90
2023-04-26T20:10:55.132Z,99.90
2023-04-26T20:13:49.467Z,99.90
2023-04-26T20:16:56.436Z,99.90
2023-04-26T20:25:39.264Z,99.90
2023-04-26T20:28:30.428Z,99.90
2023-04-26T20:31:12.485Z,99.90
2023-04-26T20:36:37.920Z,99.90
2023-04-26T20:42:03.660Z,99.90
2023-04-26T20:44:35.345Z,99.90
2023-04-26T20:47:02.438Z,99.90
2023-04-26T20:49:35.104Z,99.90
2023-04-26T20:52:09.471Z,99.90
2023-04-26T20:54:36.297Z,99.90
2023-04-26T20:57:03.779Z,99.90
2023-04-26T20:59:37.737Z,99.90
2023-04-26T21:05:00.319Z,99.90
2023-04-26T21:07:40.554Z,99.90
2023-04-26T21:10:16.840Z,99.90
2023-04-26T21:12:46.028Z,99.90
2023-04-26T21:15:22.504Z,99.90
2023-04-26T21:17:51.353Z,99.90
2023-04-26T21:26:10.484Z,99.90
2023-04-26T21:28:39.171Z,99.90
2023-04-26T21:31:10.954Z,99.90
2023-04-26T21:33:40.043Z,99.90
2023-04-26T21:36:21.535Z,99.90
2023-04-26T21:39:03.907Z,99.90
2023-04-26T21:41:34.852Z,99.90
2023-04-26T21:44:36.672Z,99.90
2023-04-26T21:47:13.250Z,99.90
2023-04-26T21:49:43.632Z,99.90
2023-04-26T21:52:10.807Z,99.90
2023-04-26T21:54:54.737Z,99.90
2023-04-26T21:57:26.867Z,99.90
2023-04-26T22:00:00.794Z,99.90
2023-04-26T22:02:30.645Z,99.90
2023-04-26T22:04:57.489Z,99.90
2023-04-26T22:07:27.836Z,99.90
2023-04-26T22:10:04.504Z,99.90
2023-04-26T22:12:53.322Z,99.90
2023-04-26T22:16:27.339Z,99.90
2023-04-26T22:19:00.543Z,99.90
2023-04-26T22:21:29.075Z,99.90
2023-04-26T22:23:56.828Z,99.90
2023-04-26T22:26:28.975Z,99.90
2023-04-26T22:28:57.894Z,99.90
2023-04-26T22:34:49.594Z,99.90
2023-04-26T22:40:53.166Z,99.90
2023-04-26T22:43:28.727Z,99.90
2023-04-26T22:46:12.625Z,99.90
2023-04-26T22:48:40.479Z,99.90
2023-04-26T22:51:13.092Z,99.90
2023-04-26T22:53:41.479Z,99.90
2023-04-26T22:56:12.868Z,99.90
2023-04-26T22:58:49.433Z,99.90
2023-04-26T23:01:16.677Z,99.90
2023-04-26T23:03:49.865Z,99.90
2023-04-26T23:06:17.048Z,99.90
2023-04-26T23:08:43.895Z,99.90
2023-04-26T23:11:11.138Z,99.90
2023-04-26T23:13:37.936Z,99.90
2023-04-26T23:16:06.239Z,99.90
2023-04-26T23:18:34.224Z,99.90
2023-04-26T23:21:01.375Z,99.90
2023-04-26T23:23:30.573Z,99.90
2023-04-26T23:26:01.313Z,99.90
2023-04-26T23:28:29.917Z,99.90
2023-04-26T23:30:59.126Z,99.90
2023-04-26T23:33:29.631Z,99.90
2023-04-26T23:36:02.244Z,99.90
2023-04-26T23:38:32.132Z,99.90
2023-04-26T23:41:02.563Z,99.90
2023-04-26T23:43:30.970Z,99.90
2023-04-26T23:46:03.440Z,99.90
2023-04-26T23:48:49.290Z,99.90
2023-04-26T23:51:19.693Z,99.90
2023-04-26T23:56:55.423Z,99.90
2023-04-26T23:59:27.916Z,99.90
